createdAt,value
2018-10-17T04:01:24.435Z,13.40
2018-10-17T04:03:52.633Z,12.07
2018-10-17T04:06:21.211Z,11.83
2018-10-17T04:08:49.331Z,13.53
2018-10-17T04:11:17.524Z,11.90
2018-10-17T04:13:45.599Z,16.33
2018-10-17T04:16:13.747Z,18.07
2018-10-17T04:18:41.866Z,14.10
2018-10-17T04:21:09.992Z,13.73
2018-10-17T04:23:38.134Z,14.33
2018-10-17T04:26:06.276Z,15.30
2018-10-17T04:28:34.380Z,14.57
2018-10-17T04:31:02.538Z,16.87
2018-10-17T04:33:30.643Z,13.13
2018-10-17T04:35:58.797Z,13.43
2018-10-17T04:38:26.904Z,14.43
2018-10-17T04:40:55.032Z,15.83
2018-10-17T04:43:23.148Z,12.80
2018-10-17T04:45:51.271Z,10.87
2018-10-17T04:48:19.396Z,11.33
2018-10-17T04:50:47.538Z,14.43
2018-10-17T04:53:15.706Z,12.00
2018-10-17T04:55:43.786Z,13.27
2018-10-17T04:58:11.899Z,18.67
2018-10-17T05:00:40.005Z,12.93
2018-10-17T05:03:08.138Z,15.80
2018-10-17T05:05:36.276Z,16.37
2018-10-17T05:08:04.496Z,14.87
2018-10-17T05:10:32.656Z,15.73
2018-10-17T05:13:00.807Z,18.23
2018-10-17T05:15:29.305Z,17.67
2018-10-17T05:17:57.449Z,13.93
2018-10-17T05:20:25.655Z,16.67
2018-10-17T05:22:53.843Z,15.30
2018-10-17T05:25:21.916Z,17.20
2018-10-17T05:27:50.024Z,15.60
2018-10-17T05:30:18.148Z,15.00
2018-10-17T05:32:46.358Z,18.47
2018-10-17T05:35:14.601Z,19.70
2018-10-17T05:37:42.737Z,15.57
2018-10-17T05:40:12.164Z,16.77
2018-10-17T05:42:40.312Z,13.87
2018-10-17T05:45:08.716Z,18.63
2018-10-17T05:47:36.849Z,15.70
2018-10-17T05:50:05.012Z,16.77
2018-10-17T05:52:33.146Z,15.83
2018-10-17T05:55:01.318Z,14.07
2018-10-17T05:57:29.433Z,14.17
2018-10-17T05:59:57.568Z,16.57
2018-10-17T06:02:28.983Z,16.50
2018-10-17T06:04:57.088Z,13.67
2018-10-17T06:07:25.215Z,12.33
2018-10-17T06:09:53.350Z,17.50
2018-10-17T06:12:21.484Z,16.03
2018-10-17T06:14:49.605Z,12.53
2018-10-17T06:17:17.821Z,12.33
2018-10-17T06:19:45.939Z,14.37
2018-10-17T06:22:14.080Z,16.57
2018-10-17T06:24:42.220Z,13.97
2018-10-17T06:27:10.383Z,13.90
2018-10-17T06:29:38.503Z,16.87
2018-10-17T06:32:06.661Z,15.07
2018-10-17T06:34:34.840Z,15.47
2018-10-17T06:37:02.982Z,12.70
2018-10-17T06:39:31.063Z,12.47
2018-10-17T06:41:59.194Z,14.03
2018-10-17T06:44:27.342Z,15.30
2018-10-17T06:46:55.532Z,15.87
2018-10-17T06:49:23.606Z,19.10
2018-10-17T06:51:51.713Z,15.13
2018-10-17T06:54:19.950Z,16.50
2018-10-17T06:56:48.020Z,18.87
2018-10-17T06:59:16.223Z,21.83
2018-10-17T07:01:44.370Z,17.13
2018-10-17T07:04:12.436Z,15.73
2018-10-17T07:06:40.608Z,15.63
2018-10-17T07:09:09.436Z,18.63
2018-10-17T07:11:37.625Z,17.83
2018-10-17T07:14:05.954Z,16.30
2018-10-17T07:16:34.108Z,15.97
2018-10-17T07:19:02.819Z,16.00
2018-10-17T07:21:30.899Z,23.33
2018-10-17T07:23:59.016Z,16.40
2018-10-17T07:26:27.146Z,15.90
2018-10-17T07:28:55.601Z,18.03
2018-10-17T07:31:23.668Z,15.70
2018-10-17T07:33:51.867Z,22.00
2018-10-17T07:36:20.082Z,24.60
2018-10-17T07:38:48.134Z,15.47
2018-10-17T07:41:16.363Z,16.77
2018-10-17T07:43:44.477Z,18.17
2018-10-17T07:46:12.595Z,18.13
2018-10-17T07:48:40.732Z,17.37
2018-10-17T07:51:08.835Z,15.87
2018-10-17T07:53:37.082Z,17.40
2018-10-17T07:56:05.256Z,17.00
2018-10-17T07:58:33.408Z,17.03
2018-10-17T08:01:01.561Z,18.93
2018-10-17T08:03:29.694Z,15.97
2018-10-17T08:05:57.850Z,15.93
2018-10-17T08:08:25.964Z,14.30
2018-10-17T08:10:54.086Z,13.57
2018-10-17T08:13:22.231Z,15.20
2018-10-17T08:15:50.389Z,15.60
2018-10-17T08:18:18.574Z,14.97
2018-10-17T08:20:46.637Z,17.30
2018-10-17T08:23:14.757Z,16.13
2018-10-17T08:25:42.868Z,17.83
2018-10-17T08:28:11.008Z,19.60
2018-10-17T08:30:39.133Z,17.53
2018-10-17T08:33:07.295Z,24.70
2018-10-17T08:35:35.566Z,21.87
2018-10-17T08:38:03.597Z,24.73
2018-10-17T08:40:31.703Z,24.67
2018-10-17T08:42:59.848Z,19.10
2018-10-17T08:45:28.008Z,18.73
2018-10-17T08:47:56.152Z,20.67
2018-10-17T08:50:24.291Z,16.77
2018-10-17T08:52:52.419Z,16.53
2018-10-17T08:55:20.563Z,15.37
2018-10-17T08:57:48.762Z,13.67
2018-10-17T09:00:16.914Z,19.13
2018-10-17T09:02:45.088Z,17.20
2018-10-17T09:05:13.444Z,14.93
2018-10-17T09:07:41.686Z,13.50
2018-10-17T09:10:09.787Z,16.23
2018-10-17T09:12:37.939Z,15.60
2018-10-17T09:15:06.836Z,17.83
2018-10-17T09:17:35.140Z,18.10
2018-10-17T09:20:03.594Z,15.43
2018-10-17T09:22:31.559Z,14.50
2018-10-17T09:24:59.769Z,16.67
2018-10-17T09:27:27.907Z,14.53
2018-10-17T09:29:56.129Z,13.33
2018-10-17T09:32:24.220Z,12.10
2018-10-17T09:34:52.857Z,11.67
2018-10-17T09:37:24.072Z,17.03
2018-10-17T09:39:52.247Z,17.03
2018-10-17T09:42:20.458Z,18.33
2018-10-17T09:44:50.099Z,15.30
2018-10-17T09:47:24.355Z,14.87
2018-10-17T09:49:52.520Z,10.03
2018-10-17T09:52:20.660Z,13.47
2018-10-17T09:54:48.818Z,11.93
2018-10-17T09:57:16.991Z,10.10
2018-10-17T09:59:45.144Z,9.60
2018-10-17T10:02:13.358Z,14.90
2018-10-17T10:04:41.423Z,13.73
2018-10-17T10:07:09.570Z,11.93
2018-10-17T10:09:37.687Z,10.00
2018-10-17T10:12:05.947Z,8.63
2018-10-17T10:14:34.050Z,8.50
2018-10-17T10:17:02.266Z,7.77
2018-10-17T10:19:30.381Z,8.27
2018-10-17T10:21:58.526Z,6.70
2018-10-17T10:24:26.684Z,15.93
2018-10-17T10:26:54.832Z,8.50
2018-10-17T10:29:23.569Z,11.63
2018-10-17T10:31:51.680Z,7.23
2018-10-17T10:34:19.875Z,7.50
2018-10-17T10:36:47.929Z,7.07
2018-10-17T10:39:16.070Z,6.00
2018-10-17T10:41:44.222Z,6.20
2018-10-17T10:44:12.445Z,6.93
2018-10-17T10:46:40.487Z,6.50
2018-10-17T10:49:09.701Z,6.03
2018-10-17T10:51:37.904Z,10.97
2018-10-17T10:54:05.971Z,6.07
2018-10-17T10:56:34.191Z,6.33
2018-10-17T10:59:02.413Z,6.33
2018-10-17T11:01:30.475Z,6.40
2018-10-17T11:03:58.613Z,5.60
2018-10-17T11:06:26.772Z,5.90
2018-10-17T11:08:54.919Z,6.43
2018-10-17T11:11:23.055Z,6.50
2018-10-17T11:13:51.212Z,7.30
2018-10-17T11:16:19.319Z,6.07
2018-10-17T11:18:47.431Z,6.37
2018-10-17T11:21:15.592Z,6.13
2018-10-17T11:23:43.703Z,6.07
2018-10-17T11:26:11.813Z,6.30
2018-10-17T11:28:39.970Z,5.33
2018-10-17T11:31:08.114Z,12.57
2018-10-17T11:33:36.389Z,5.23
2018-10-17T11:36:04.558Z,4.47
2018-10-17T11:38:32.667Z,7.33
2018-10-17T11:41:00.865Z,5.23
2018-10-17T11:43:28.976Z,4.07
2018-10-17T11:45:57.121Z,4.20
2018-10-17T11:48:25.254Z,4.30
2018-10-17T11:50:54.459Z,4.20
2018-10-17T11:53:22.572Z,4.83
2018-10-17T11:55:50.753Z,4.70
2018-10-17T11:58:18.927Z,5.67
2018-10-17T12:00:47.092Z,5.23
2018-10-17T12:03:15.283Z,10.60
2018-10-17T12:05:46.341Z,9.13
2018-10-17T12:08:16.670Z,6.90
2018-10-17T12:10:51.933Z,7.67
2018-10-17T12:13:20.079Z,9.47
2018-10-17T12:15:48.233Z,6.67
2018-10-17T12:18:16.422Z,8.83
2018-10-17T12:20:44.596Z,7.40
2018-10-17T12:23:12.833Z,11.50
2018-10-17T12:25:41.543Z,6.80
2018-10-17T12:28:09.779Z,5.03
2018-10-17T12:30:37.906Z,9.50
2018-10-17T12:33:06.139Z,6.20
2018-10-17T12:35:34.235Z,6.57
2018-10-17T12:38:02.699Z,6.00
2018-10-17T12:40:30.996Z,8.00
2018-10-17T12:42:59.004Z,6.43
2018-10-17T12:45:27.213Z,7.77
2018-10-17T12:47:55.357Z,8.90
2018-10-17T12:50:24.619Z,7.50
2018-10-17T12:52:52.759Z,6.53
2018-10-17T12:55:20.836Z,8.70
2018-10-17T12:57:48.948Z,6.33
2018-10-17T13:00:17.059Z,6.20
2018-10-17T13:02:45.188Z,6.27
2018-10-17T13:05:13.367Z,7.37
2018-10-17T13:07:41.456Z,6.40
2018-10-17T13:10:10.464Z,6.37
2018-10-17T13:12:38.603Z,10.17
2018-10-17T13:15:08.022Z,6.30
2018-10-17T13:17:36.203Z,7.87
2018-10-17T13:20:04.324Z,7.87
2018-10-17T13:22:32.464Z,7.17
2018-10-17T13:25:00.588Z,10.90
2018-10-17T13:27:28.735Z,7.23
2018-10-17T13:29:56.854Z,6.90
2018-10-17T13:32:24.979Z,8.63
2018-10-17T13:34:53.125Z,7.00
2018-10-17T13:37:22.138Z,6.97
2018-10-17T13:39:50.278Z,6.20
2018-10-17T13:42:18.526Z,11.63
2018-10-17T13:44:46.605Z,14.40
2018-10-17T13:47:14.870Z,8.50
2018-10-17T13:49:42.955Z,10.00
2018-10-17T13:52:11.158Z,6.40
2018-10-17T13:54:39.321Z,9.50
2018-10-17T13:57:07.438Z,7.17
2018-10-17T13:59:35.597Z,5.67
2018-10-17T14:02:03.723Z,6.60
2018-10-17T14:04:31.855Z,7.00
2018-10-17T14:06:59.991Z,8.97
2018-10-17T14:09:28.131Z,6.63
2018-10-17T14:11:56.265Z,8.97
2018-10-17T14:14:24.392Z,7.43
2018-10-17T14:16:52.533Z,16.63
2018-10-17T14:19:20.640Z,5.33
2018-10-17T14:21:48.848Z,9.40
2018-10-17T14:24:17.019Z,5.50
2018-10-17T14:26:45.124Z,6.33
2018-10-17T14:29:13.232Z,5.07
2018-10-17T14:31:41.395Z,6.00
2018-10-17T14:34:09.513Z,5.73
2018-10-17T14:36:37.620Z,5.10
2018-10-17T14:39:08.652Z,4.67
2018-10-17T14:41:36.799Z,8.73
2018-10-17T14:44:04.908Z,4.50
2018-10-17T14:46:33.023Z,7.13
2018-10-17T14:49:01.238Z,5.20
2018-10-17T14:51:29.383Z,5.47
2018-10-17T14:53:57.544Z,6.43
2018-10-17T14:56:25.664Z,5.00
2018-10-17T14:58:53.818Z,4.73
2018-10-17T15:01:21.977Z,9.70
2018-10-17T15:03:50.093Z,5.60
2018-10-17T15:06:18.244Z,5.07
2018-10-17T15:08:46.385Z,5.50
2018-10-17T15:11:14.643Z,8.07
2018-10-17T15:13:42.712Z,4.90
2018-10-17T15:16:10.859Z,5.67
2018-10-17T15:18:39.047Z,5.33
2018-10-17T15:21:07.247Z,6.00
2018-10-17T15:23:35.339Z,7.47
2018-10-17T15:26:03.494Z,7.53
2018-10-17T15:28:31.691Z,9.50
2018-10-17T15:30:59.901Z,9.27
2018-10-17T15:33:28.065Z,12.57
2018-10-17T15:35:56.198Z,12.60
2018-10-17T15:38:24.349Z,8.23
2018-10-17T15:40:52.503Z,8.20
2018-10-17T15:43:20.716Z,6.20
2018-10-17T15:45:48.790Z,8.83
2018-10-17T15:48:23.696Z,5.90
2018-10-17T15:50:51.849Z,9.00
2018-10-17T15:53:20.071Z,10.53
2018-10-17T15:55:48.145Z,42.90
2018-10-17T15:58:16.303Z,28.77
2018-10-17T16:00:44.448Z,11.90
2018-10-17T16:03:12.564Z,7.13
2018-10-17T16:05:40.691Z,7.33
2018-10-17T16:08:08.882Z,6.40
2018-10-17T16:10:41.618Z,6.13
2018-10-17T16:13:09.801Z,33.47
2018-10-17T16:15:40.851Z,6.43
2018-10-17T16:18:10.653Z,9.00
2018-10-17T16:20:38.724Z,6.37
2018-10-17T16:23:07.085Z,7.47
2018-10-17T16:25:35.146Z,6.30
2018-10-17T16:28:03.294Z,6.10
2018-10-17T16:30:31.476Z,10.70
2018-10-17T16:32:59.664Z,10.60
2018-10-17T16:35:28.516Z,9.30
2018-10-17T16:37:56.711Z,9.87
2018-10-17T16:40:24.840Z,8.97
2018-10-17T16:42:52.991Z,16.10
2018-10-17T16:45:21.126Z,9.80
2018-10-17T16:47:49.260Z,9.33
2018-10-17T16:50:17.463Z,11.83
2018-10-17T16:52:46.386Z,8.60
2018-10-17T16:55:16.011Z,11.00
2018-10-17T16:57:44.141Z,12.43
2018-10-17T17:00:12.991Z,9.50
2018-10-17T17:02:41.057Z,10.67
2018-10-17T17:05:12.447Z,9.40
2018-10-17T17:07:41.125Z,10.33
2018-10-17T17:10:10.157Z,8.33
2018-10-17T17:12:38.496Z,8.43
2018-10-17T17:15:07.145Z,8.60
2018-10-17T17:17:35.232Z,10.50
2018-10-17T17:20:03.401Z,8.80
2018-10-17T17:22:31.621Z,11.03
2018-10-17T17:24:59.689Z,8.63
2018-10-17T17:27:27.853Z,9.33
2018-10-17T17:29:56.071Z,7.40
2018-10-17T17:32:24.183Z,10.20
2018-10-17T17:34:52.471Z,9.70
2018-10-17T17:37:20.739Z,9.50
2018-10-17T17:39:48.864Z,11.00
2018-10-17T17:42:16.996Z,9.37
2018-10-17T17:44:45.140Z,9.47
2018-10-17T17:47:13.283Z,11.80
2018-10-17T17:49:41.694Z,10.20
2018-10-17T17:52:09.883Z,10.87
2018-10-17T17:54:37.947Z,9.03
2018-10-17T17:57:06.683Z,9.80
2018-10-17T17:59:34.802Z,11.23
2018-10-17T18:02:03.821Z,10.70
2018-10-17T18:04:35.152Z,10.00
2018-10-17T18:07:03.292Z,10.33
2018-10-17T18:09:31.419Z,10.53
2018-10-17T18:11:59.516Z,16.07
2018-10-17T18:14:27.805Z,10.03
2018-10-17T18:16:56.018Z,12.67
2018-10-17T18:19:24.176Z,10.23
2018-10-17T18:21:52.406Z,12.17
2018-10-17T18:24:20.483Z,11.60
2018-10-17T18:26:48.755Z,11.80
2018-10-17T18:29:17.018Z,18.93
2018-10-17T18:31:45.234Z,16.07
2018-10-17T18:34:13.554Z,13.40
2018-10-17T18:36:41.677Z,9.90
2018-10-17T18:39:09.919Z,10.87
2018-10-17T18:41:41.677Z,10.50
2018-10-17T18:44:09.897Z,12.47
2018-10-17T18:46:43.857Z,12.53
2018-10-17T18:49:13.041Z,12.13
2018-10-17T18:51:42.383Z,12.97
2018-10-17T18:54:10.654Z,12.73
2018-10-17T18:56:38.844Z,10.93
2018-10-17T18:59:07.557Z,11.90
2018-10-17T19:01:35.754Z,11.73
2018-10-17T19:04:07.746Z,13.70
2018-10-17T19:06:35.879Z,11.87
2018-10-17T19:09:07.749Z,12.80
2018-10-17T19:11:35.812Z,15.60
2018-10-17T19:14:05.160Z,16.53
2018-10-17T19:16:34.198Z,16.47
2018-10-17T19:19:04.180Z,16.77
2018-10-17T19:21:36.813Z,15.40
2018-10-17T19:24:08.387Z,14.03
2018-10-17T19:26:38.158Z,14.40
2018-10-17T19:29:06.414Z,13.10
2018-10-17T19:31:37.723Z,14.10
2018-10-17T19:34:08.740Z,13.70
2018-10-17T19:36:38.981Z,16.10
2018-10-17T19:39:08.840Z,12.77
2018-10-17T19:41:37.093Z,14.10
2018-10-17T19:44:07.706Z,11.23
2018-10-17T19:46:38.017Z,13.80
2018-10-17T19:49:09.626Z,12.97
2018-10-17T19:51:37.858Z,12.80
2018-10-17T19:56:48.031Z,13.30
2018-10-17T19:59:17.120Z,14.50
2018-10-17T20:01:45.372Z,13.87
2018-10-17T20:04:14.125Z,15.13
2018-10-17T20:06:44.353Z,14.60
2018-10-17T20:09:12.869Z,12.57
2018-10-17T20:11:40.980Z,14.03
2018-10-17T20:14:09.697Z,13.20
2018-10-17T20:16:37.897Z,13.90
2018-10-17T20:19:07.155Z,12.70
2018-10-17T20:21:35.328Z,12.40
2018-10-17T20:24:03.501Z,12.63
2018-10-17T20:26:31.726Z,13.07
2018-10-17T20:29:01.289Z,15.00
2018-10-17T20:31:29.514Z,13.53
2018-10-17T20:33:57.714Z,13.27
2018-10-17T20:36:26.492Z,17.43
2018-10-17T20:38:56.243Z,14.93
2018-10-17T20:41:24.504Z,13.40
2018-10-17T20:43:52.784Z,12.43
2018-10-17T20:46:21.082Z,13.07
2018-10-17T20:48:49.191Z,17.80
2018-10-17T20:51:17.329Z,13.63
2018-10-17T20:53:45.708Z,17.30
2018-10-17T20:56:14.105Z,14.87
2018-10-17T20:58:42.562Z,13.77
